Time;durP1;ratioP1;P1;durP2;ratioP2;P2;SDS_P1;SDS_P2;PMS_P1;PMS_P2;Temp;Humidity;BMP_temperature;BMP_pressure;BME280_temperature;BME280_humidity;BME280_pressure;Samples;Min_cycle;Max_cycle;Signal;HPM_P1;HPM_P2
2021/06/26 00:01:32;;;;;;;12.27;8.13;;;25.50;41.60;;;;;;20675599;28;20104;-63
2021/06/26 00:11:35;;;;;;;9.10;5.53;;;25.30;41.70;;;;;;20686109;28;20133;-64
2021/06/26 00:21:37;;;;;;;;;;;25.10;42.10;;;;;;20674645;28;20054;-60
2021/06/26 00:31:39;;;;;;;7.80;3.70;;;24.90;42.60;;;;;;20673680;28;19922;-65
2021/06/26 00:41:43;;;;;;;5.45;3.63;;;24.80;43.10;;;;;;20672005;28;20053;-62
2021/06/26 00:51:45;;;;;;;7.25;3.28;;;24.60;43.70;;;;;;20672275;28;20126;-66
2021/06/26 01:01:48;;;;;;;11.55;5.95;;;24.50;44.00;;;;;;20670286;28;20129;-64
2021/06/26 01:11:57;;;;;;;7.50;5.75;;;24.40;44.10;;;;;;20669688;28;20046;-63
2021/06/26 01:22:05;;;;;;;9.40;6.00;;;24.40;44.30;;;;;;20668502;28;20066;-61
2021/06/26 01:32:07;;;;;;;6.40;3.70;;;24.40;44.40;;;;;;20668829;28;20109;-62
2021/06/26 01:42:13;;;;;;;9.93;6.13;;;24.30;45.00;;;;;;20667941;28;20476;-61
2021/06/26 01:52:19;;;;;;;9.18;5.47;;;24.20;45.40;;;;;;20667543;28;20057;-66
2021/06/26 02:02:29;;;;;;;5.68;3.30;;;24.10;45.90;;;;;;20666976;28;20057;-66
2021/06/26 02:12:34;;;;;;;7.07;4.78;;;23.90;46.00;;;;;;20668639;28;20108;-65
2021/06/26 02:22:37;;;;;;;6.50;4.10;;;23.70;46.50;;;;;;20666204;28;20575;-65
2021/06/26 02:32:40;;;;;;;7.40;4.32;;;23.60;46.90;;;;;;20673359;28;20050;-60
2021/06/26 02:42:43;;;;;;;6.43;4.35;;;23.40;47.40;;;;;;20681741;28;20522;-62
2021/06/26 02:52:49;;;;;;;5.63;3.15;;;23.20;47.70;;;;;;20680595;28;20050;-63
2021/06/26 03:02:52;;;;;;;7.82;5.47;;;23.10;48.10;;;;;;20679595;28;20058;-62
2021/06/26 03:12:55;;;;;;;4.30;2.55;;;22.80;48.20;;;;;;20691504;28;20487;-65
2021/06/26 03:22:57;;;;;;;4.87;2.20;;;22.50;48.80;;;;;;20678516;28;20419;-62
2021/06/26 03:33:00;;;;;;;4.13;2.42;;;22.20;49.10;;;;;;20678856;28;20307;-61
2021/06/26 03:43:02;;;;;;;5.75;2.45;;;22.10;49.20;;;;;;20675713;28;20073;-61
2021/06/26 03:53:05;;;;;;;4.93;2.42;;;21.90;48.80;;;;;;20676337;28;20053;-72
2021/06/26 04:03:08;;;;;;;4.05;2.30;;;21.80;48.50;;;;;;20675158;28;20069;-74
2021/06/26 04:13:11;;;;;;;3.90;2.20;;;21.80;48.40;;;;;;20675549;28;20047;-71
2021/06/26 04:23:14;;;;;;;5.22;2.53;;;21.70;49.00;;;;;;20673194;28;20113;-60
2021/06/26 04:33:16;;;;;;;4.95;2.55;;;21.70;49.40;;;;;;20672882;28;20137;-61
2021/06/26 04:43:19;;;;;;;6.33;2.60;;;21.60;49.80;;;;;;20673175;28;20475;-62
2021/06/26 04:53:24;;;;;;;5.28;2.90;;;21.60;50.10;;;;;;20671760;28;20392;-70
2021/06/26 05:03:26;;;;;;;4.90;2.80;;;21.60;50.60;;;;;;20670399;28;20050;-59
2021/06/26 05:13:29;;;;;;;3.55;2.45;;;21.50;50.80;;;;;;20669666;28;20047;-61
2021/06/26 05:23:31;;;;;;;5.82;2.90;;;21.60;50.60;;;;;;20668418;28;20419;-62
2021/06/26 05:33:33;;;;;;;3.87;2.63;;;21.60;50.40;;;;;;20669419;28;20139;-71
2021/06/26 05:43:38;;;;;;;4.47;2.40;;;21.70;50.20;;;;;;20669242;28;20050;-73
2021/06/26 05:53:39;;;;;;;5.78;2.63;;;21.70;50.00;;;;;;20667515;28;20050;-60
2021/06/26 06:03:41;;;;;;;7.03;2.90;;;21.70;50.00;;;;;;20669388;28;20145;-73
2021/06/26 06:13:44;;;;;;;5.27;2.90;;;21.70;50.00;;;;;;20684280;28;20395;-62
2021/06/26 06:23:46;;;;;;;4.63;2.00;;;21.90;50.10;;;;;;20683338;28;20058;-62
2021/06/26 06:33:48;;;;;;;5.80;2.33;;;22.10;49.40;;;;;;20683183;28;20050;-72
2021/06/26 06:43:50;;;;;;;8.47;2.00;;;22.40;48.50;;;;;;20683294;28;20050;-65
2021/06/26 06:53:52;;;;;;;4.73;1.97;;;22.60;48.40;;;;;;20682953;28;20050;-65
2021/06/26 07:03:54;;;;;;;6.40;1.63;;;23.10;47.90;;;;;;20680729;28;20081;-63
2021/06/26 07:13:56;;;;;;;2.97;1.42;;;23.90;46.60;;;;;;20677751;28;20507;-62
2021/06/26 07:23:58;;;;;;;;;;;24.70;45.00;;;;;;20678191;28;20077;-63
2021/06/26 07:34:00;;;;;;;3.55;1.50;;;25.40;43.80;;;;;;20677082;28;19921;-63
2021/06/26 07:44:03;;;;;;;3.05;1.33;;;25.80;42.80;;;;;;20676151;28;20086;-62
2021/06/26 07:54:05;;;;;;;6.68;1.90;;;26.40;41.50;;;;;;20674355;28;20070;-63
2021/06/26 08:04:08;;;;;;;6.55;2.03;;;26.70;41.00;;;;;;20675207;28;20133;-66
2021/06/26 08:14:11;;;;;;;6.13;2.20;;;27.30;40.10;;;;;;20694759;28;20060;-72
2021/06/26 08:24:14;;;;;;;5.28;2.30;;;27.40;39.90;;;;;;20687171;28;20085;-65
2021/06/26 08:34:16;;;;;;;5.63;2.33;;;27.90;39.40;;;;;;20673235;28;20491;-61
2021/06/26 08:44:19;;;;;;;5.63;1.70;;;28.20;39.10;;;;;;20673701;28;20050;-62
2021/06/26 08:54:21;;;;;;;8.80;1.90;;;28.60;38.50;;;;;;20673435;28;20057;-66
2021/06/26 09:04:23;;;;;;;6.22;2.00;;;28.90;38.10;;;;;;20670039;28;20061;-63
2021/06/26 09:14:26;;;;;;;3.58;1.58;;;28.90;37.80;;;;;;20669883;28;20050;-63
2021/06/26 09:24:37;;;;;;;6.95;1.85;;;29.40;37.20;;;;;;20668386;28;20082;-63
2021/06/26 09:34:44;;;;;;;3.20;1.70;;;29.60;37.20;;;;;;20667446;28;20050;-63
2021/06/26 09:45:00;;;;;;;4.15;1.60;;;29.90;36.30;;;;;;20666883;28;20108;-63
2021/06/26 09:55:20;;;;;;;5.72;2.83;;;30.10;36.00;;;;;;20666199;28;20062;-62
2021/06/26 10:05:21;;;;;;;8.33;2.57;;;30.10;35.90;;;;;;20666457;28;20423;-63
2021/06/26 10:15:33;;;;;;;6.72;2.20;;;30.20;35.90;;;;;;20666120;28;20054;-62
2021/06/26 10:25:39;;;;;;;4.07;2.15;;;30.60;35.10;;;;;;20665793;28;20103;-64
2021/06/26 10:35:53;;;;;;;6.78;2.15;;;30.60;33.90;;;;;;20665408;28;20410;-63
2021/06/26 10:46:12;;;;;;;9.55;3.30;;;30.60;33.80;;;;;;20665164;28;20054;-64
2021/06/26 10:56:19;;;;;;;7.30;4.63;;;30.90;32.70;;;;;;20675814;28;20129;-63
2021/06/26 11:06:26;;;;;;;5.70;3.38;;;31.10;32.10;;;;;;20680085;28;20046;-73
2021/06/26 11:16:28;;;;;;;7.72;2.50;;;31.20;32.00;;;;;;20678085;28;20047;-63
2021/06/26 11:26:30;;;;;;;3.60;1.70;;;31.30;30.70;;;;;;20680482;28;20569;-63
2021/06/26 11:36:33;;;;;;;2.85;1.80;;;31.30;31.00;;;;;;20678136;28;20400;-68
2021/06/26 11:46:35;;;;;;;3.47;2.00;;;31.20;30.70;;;;;;20677743;28;20058;-64
2021/06/26 11:56:37;;;;;;;3.33;2.00;;;31.60;29.70;;;;;;20676771;28;20046;-69
2021/06/26 12:06:39;;;;;;;4.82;2.00;;;31.60;29.40;;;;;;20674623;28;20064;-63
2021/06/26 12:16:43;;;;;;;2.17;1.60;;;31.90;29.10;;;;;;20675232;28;20503;-63
2021/06/26 12:26:45;;;;;;;13.40;10.35;;;31.90;28.60;;;;;;20676806;28;20050;-73
2021/06/26 12:36:54;;;;;;;8.52;2.80;;;31.80;28.60;;;;;;20672464;28;20049;-63
2021/06/26 12:46:56;;;;;;;3.15;2.03;;;31.90;28.50;;;;;;20671757;28;20141;-65
2021/06/26 12:56:58;;;;;;;4.50;2.03;;;31.80;28.30;;;;;;20672147;28;20065;-61
2021/06/26 13:07:01;;;;;;;3.83;2.10;;;32.10;28.10;;;;;;20671487;28;20517;-62
2021/06/26 13:17:03;;;;;;;4.05;2.70;;;32.20;27.70;;;;;;20671398;28;20407;-64
2021/06/26 13:27:04;;;;;;;5.22;2.72;;;32.30;27.00;;;;;;20670007;28;20057;-71
2021/06/26 13:37:06;;;;;;;3.65;2.30;;;32.50;26.70;;;;;;20668151;28;20054;-63
2021/06/26 13:47:07;;;;;;;4.35;2.40;;;32.70;25.60;;;;;;20669602;28;20064;-66
2021/06/26 13:57:09;;;;;;;5.85;2.20;;;32.70;25.40;;;;;;20668798;28;20054;-66
2021/06/26 14:07:11;;;;;;;3.63;1.80;;;32.70;25.20;;;;;;20667446;28;20462;-63
2021/06/26 14:17:13;;;;;;;9.25;3.25;;;32.90;25.00;;;;;;20665130;28;20050;-63
2021/06/26 14:27:14;;;;;;;4.10;2.72;;;32.80;25.30;;;;;;20669583;28;20107;-63
2021/06/26 14:37:16;;;;;;;3.40;1.85;;;32.60;25.60;;;;;;20684764;28;20054;-63
2021/06/26 14:47:18;;;;;;;4.03;2.03;;;32.70;25.10;;;;;;20682221;28;20054;-67
2021/06/26 14:57:20;;;;;;;4.93;2.28;;;32.70;24.80;;;;;;20682710;28;20415;-63
2021/06/26 15:07:22;;;;;;;2.60;1.60;;;32.70;24.30;;;;;;20680977;28;20116;-63
2021/06/26 15:17:24;;;;;;;4.65;2.05;;;32.70;24.40;;;;;;20678646;28;20089;-62
2021/06/26 15:27:26;;;;;;;4.97;2.88;;;32.80;24.60;;;;;;20677342;28;20062;-64
2021/06/26 15:37:28;;;;;;;4.15;2.40;;;32.70;24.90;;;;;;20676612;28;20058;-63
2021/06/26 15:47:31;;;;;;;3.35;2.58;;;32.60;24.90;;;;;;20675145;28;20050;-65
2021/06/26 15:57:32;;;;;;;2.55;1.90;;;32.70;25.40;;;;;;20676837;28;20487;-65
2021/06/26 16:07:36;;;;;;;3.60;2.00;;;32.70;25.80;;;;;;20675315;28;20120;-60
2021/06/26 16:17:38;;;;;;;3.13;2.15;;;32.70;25.50;;;;;;20669402;28;20129;-58
2021/06/26 16:27:40;;;;;;;2.67;2.10;;;32.60;26.10;;;;;;20631998;28;20046;-64
2021/06/26 16:37:53;;;;;;;2.83;1.90;;;32.50;26.40;;;;;;20595977;28;20059;-63
2021/06/26 16:47:54;;;;;;;4.47;2.63;;;32.60;26.10;;;;;;20590776;28;20062;-64
2021/06/26 16:57:55;;;;;;;6.50;3.85;;;32.30;26.30;;;;;;20591021;28;20133;-64
2021/06/26 17:07:57;;;;;;;3.63;2.42;;;32.30;26.50;;;;;;20589855;28;20535;-64
2021/06/26 17:17:58;;;;;;;6.97;5.32;;;32.20;26.70;;;;;;20589065;28;20102;-66
2021/06/26 17:28:00;;;;;;;3.58;2.40;;;32.20;26.50;;;;;;20587190;28;20082;-62
2021/06/26 17:38:01;;;;;;;5.22;2.28;;;32.30;26.30;;;;;;20587165;28;20057;-62
2021/06/26 17:48:03;;;;;;;4.35;2.33;;;32.10;26.00;;;;;;20586747;28;20043;-63
2021/06/26 17:58:05;;;;;;;3.85;1.90;;;32.00;26.10;;;;;;20586825;28;20504;-65
2021/06/26 18:08:06;;;;;;;5.82;2.08;;;31.80;25.70;;;;;;20585373;28;20527;-62
2021/06/26 18:18:08;;;;;;;5.82;2.22;;;31.60;25.40;;;;;;20586247;28;20070;-61
2021/06/26 18:28:09;;;;;;;3.90;2.03;;;31.50;25.60;;;;;;20586557;28;20050;-62
2021/06/26 18:38:11;;;;;;;4.53;2.00;;;31.30;25.30;;;;;;20585872;28;20047;-64
2021/06/26 18:48:13;;;;;;;6.65;2.10;;;31.10;25.70;;;;;;20585664;28;20058;-64
2021/06/26 18:58:15;;;;;;;5.80;2.28;;;30.90;25.70;;;;;;20585541;28;20049;-63
2021/06/26 19:08:16;;;;;;;4.53;2.33;;;30.70;25.80;;;;;;20584914;28;20047;-63
2021/06/26 19:18:21;;;;;;;5.28;2.53;;;30.50;26.30;;;;;;20596305;28;20058;-63
2021/06/26 19:28:25;;;;;;;3.75;2.13;;;30.20;26.60;;;;;;20596036;28;20122;-64
2021/06/26 19:38:28;;;;;;;8.18;4.15;;;30.00;27.00;;;;;;20596556;28;20053;-63
2021/06/26 19:48:30;;;;;;;4.22;2.83;;;29.80;27.30;;;;;;20595440;28;20116;-63
2021/06/26 19:58:32;;;;;;;4.40;2.08;;;29.60;27.60;;;;;;20595916;28;20055;-63
2021/06/26 20:08:35;;;;;;;4.05;2.50;;;29.40;27.80;;;;;;20595355;28;20086;-67
2021/06/26 20:18:37;;;;;;;5.78;3.53;;;29.20;28.10;;;;;;20593180;28;20055;-62
2021/06/26 20:28:39;;;;;;;8.15;5.85;;;29.10;28.30;;;;;;20593398;28;20058;-63
2021/06/26 20:38:41;;;;;;;4.70;3.33;;;28.90;28.30;;;;;;20594036;28;20129;-62
2021/06/26 20:48:43;;;;;;;4.53;2.50;;;28.70;28.50;;;;;;20608318;28;20458;-62
2021/06/26 20:58:46;;;;;;;4.97;2.88;;;28.60;28.70;;;;;;20591706;28;20047;-67
2021/06/26 21:08:48;;;;;;;6.10;2.80;;;28.40;29.20;;;;;;20591052;28;20058;-63
2021/06/26 21:18:50;;;;;;;5.78;3.20;;;28.20;29.10;;;;;;20588543;28;20051;-63
2021/06/26 21:28:51;;;;;;;9.20;4.40;;;28.10;29.30;;;;;;20588676;28;20134;-62
2021/06/26 21:38:53;;;;;;;6.35;2.60;;;27.90;29.90;;;;;;20588035;28;20522;-63
2021/06/26 21:48:55;;;;;;;4.82;2.95;;;27.80;29.60;;;;;;20585726;28;20055;-63
2021/06/26 21:58:57;;;;;;;4.43;2.97;;;27.60;29.80;;;;;;20586495;28;20385;-66
2021/06/26 22:08:59;;;;;;;4.45;2.70;;;27.50;29.90;;;;;;20586610;28;20105;-63
2021/06/26 22:19:04;;;;;;;9.98;4.22;;;27.40;30.40;;;;;;20586499;28;20129;-66
2021/06/26 22:29:07;;;;;;;12.25;5.70;;;27.30;30.30;;;;;;20585965;28;20054;-62
2021/06/26 22:39:08;;;;;;;7.75;3.05;;;27.10;30.70;;;;;;20601445;28;20058;-66
2021/06/26 22:49:10;;;;;;;7.38;3.78;;;27.10;30.70;;;;;;20592389;28;20061;-62
2021/06/26 22:59:13;;;;;;;5.78;2.63;;;26.90;30.80;;;;;;20601102;28;20460;-62
2021/06/26 23:09:15;;;;;;;7.53;4.40;;;26.80;31.20;;;;;;20598408;28;20054;-61
2021/06/26 23:19:17;;;;;;;5.72;4.10;;;26.70;31.30;;;;;;20612513;28;20086;-66
2021/06/26 23:29:18;;;;;;;5.47;3.10;;;26.60;31.50;;;;;;20597046;28;20062;-61
2021/06/26 23:39:28;;;;;;;5.53;2.63;;;26.40;31.40;;;;;;20596282;28;20054;-66
2021/06/26 23:49:30;;;;;;;5.30;2.78;;;26.30;31.60;;;;;;20596686;28;20137;-62
2021/06/26 23:59:31;;;;;;;6.85;4.32;;;26.20;31.60;;;;;;20594660;28;20050;-67
